Time;durP1;ratioP1;P1;durP2;ratioP2;P2;SDS_P1;SDS_P2;PMS_P1;PMS_P2;Temp;Humidity;BMP_temperature;BMP_pressure;BME280_temperature;BME280_humidity;BME280_pressure;Samples;Min_cycle;Max_cycle;Signal;HPM_P1;HPM_P2
2022/03/02 00:01:27;;;;;;;24.52;13.05;;;8.20;62.00;;;;;;5116844;28;20051;-74
2022/03/02 00:03:53;;;;;;;24.70;12.70;;;8.20;61.70;;;;;;5116800;28;20057;-73
2022/03/02 00:06:19;;;;;;;23.17;12.50;;;8.20;61.40;;;;;;5116755;28;20021;-74
2022/03/02 00:08:44;;;;;;;23.17;12.82;;;8.20;61.10;;;;;;5116739;28;20074;-73
2022/03/02 00:11:11;;;;;;;28.63;13.50;;;8.10;61.30;;;;;;5116799;28;20035;-74
2022/03/02 00:13:37;;;;;;;30.55;13.98;;;8.10;61.50;;;;;;5116633;28;20112;-74
2022/03/02 00:16:04;;;;;;;25.67;12.80;;;8.10;61.50;;;;;;5116585;28;20024;-74
2022/03/02 00:18:29;;;;;;;27.23;12.98;;;8.10;61.60;;;;;;5116511;28;20036;-73
2022/03/02 00:20:55;;;;;;;23.33;13.32;;;8.10;61.60;;;;;;5116499;28;20020;-74
2022/03/02 00:23:21;;;;;;;24.63;13.02;;;8.10;61.60;;;;;;5116393;28;20120;-74
2022/03/02 00:25:47;;;;;;;24.55;12.48;;;8.10;61.60;;;;;;5116349;28;20386;-73
2022/03/02 00:28:13;;;;;;;24.77;12.43;;;8.10;61.50;;;;;;5116354;28;20024;-74
2022/03/02 00:30:39;;;;;;;24.52;12.68;;;8.10;61.30;;;;;;5116263;28;20018;-74
2022/03/02 00:33:05;;;;;;;23.08;13.05;;;8.00;61.20;;;;;;5116229;28;20047;-73
2022/03/02 00:35:31;;;;;;;24.65;13.15;;;8.00;61.80;;;;;;5116257;28;20028;-73
2022/03/02 00:37:56;;;;;;;24.80;12.88;;;8.00;61.90;;;;;;5116168;28;20098;-74
2022/03/02 00:40:22;;;;;;;22.88;12.80;;;8.00;62.00;;;;;;5116274;28;20024;-74
2022/03/02 00:42:48;;;;;;;27.17;13.25;;;8.00;61.80;;;;;;5116012;28;20028;-74
2022/03/02 00:45:14;;;;;;;26.45;12.30;;;8.00;61.70;;;;;;5115960;28;20036;-73
2022/03/02 00:47:39;;;;;;;23.05;12.23;;;8.00;61.60;;;;;;5116020;28;20052;-74
2022/03/02 00:50:06;;;;;;;24.05;13.40;;;8.00;61.40;;;;;;5115974;28;20185;-74
2022/03/02 00:52:32;;;;;;;24.60;12.43;;;8.10;61.50;;;;;;5115910;28;20024;-74
2022/03/02 00:54:58;;;;;;;23.27;12.65;;;8.10;61.60;;;;;;5115853;28;20059;-74
2022/03/02 00:57:23;;;;;;;25.63;12.45;;;8.10;61.60;;;;;;5115814;28;20051;-74
2022/03/02 00:59:49;;;;;;;23.48;12.25;;;8.10;61.40;;;;;;5114632;28;20115;-75
2022/03/02 01:02:15;;;;;;;23.42;12.57;;;8.10;61.30;;;;;;5115639;28;20042;-74
2022/03/02 01:04:40;;;;;;;21.45;11.82;;;8.00;61.20;;;;;;5115675;28;20067;-74
2022/03/02 01:07:06;;;;;;;26.92;12.95;;;8.00;61.20;;;;;;5097702;28;20032;-74
2022/03/02 01:09:32;;;;;;;22.63;12.50;;;8.00;61.30;;;;;;5115567;28;20032;-74
2022/03/02 01:11:58;;;;;;;21.77;12.38;;;8.00;61.30;;;;;;5115539;28;20050;-73
2022/03/02 01:14:23;;;;;;;22.13;11.27;;;8.00;61.20;;;;;;5115491;28;20028;-74
2022/03/02 01:16:49;;;;;;;23.83;12.45;;;8.00;61.20;;;;;;5115456;28;20390;-74
2022/03/02 01:19:15;;;;;;;25.67;12.32;;;8.00;61.00;;;;;;5115368;28;20024;-74
2022/03/02 01:21:41;;;;;;;25.52;12.95;;;7.90;61.20;;;;;;5115308;28;20035;-74
2022/03/02 01:24:07;;;;;;;20.75;11.30;;;7.90;61.20;;;;;;5115247;28;20028;-74
2022/03/02 01:26:36;;;;;;;24.80;12.95;;;7.90;61.20;;;;;;5115258;28;20038;-74
2022/03/02 01:29:02;;;;;;;24.55;11.57;;;7.90;61.40;;;;;;5115187;28;20025;-74
2022/03/02 01:31:28;;;;;;;24.23;12.02;;;7.90;61.30;;;;;;5115146;28;20050;-74
2022/03/02 01:33:54;;;;;;;19.92;11.02;;;7.90;61.40;;;;;;5115089;28;20021;-74
2022/03/02 01:36:21;;;;;;;23.75;11.77;;;7.90;61.40;;;;;;5115031;28;20052;-74
2022/03/02 01:38:48;;;;;;;24.85;12.27;;;7.90;61.40;;;;;;5114972;28;20031;-74
2022/03/02 01:41:15;;;;;;;20.60;11.27;;;7.90;61.20;;;;;;5114942;28;20059;-74
2022/03/02 01:43:41;;;;;;;24.63;11.80;;;7.80;60.90;;;;;;5114811;28;20054;-74
2022/03/02 01:46:06;;;;;;;26.67;12.73;;;7.80;61.10;;;;;;5114731;28;20104;-73
2022/03/02 01:48:32;;;;;;;22.05;11.57;;;7.80;61.10;;;;;;5114801;28;20028;-74
2022/03/02 01:50:58;;;;;;;24.10;12.88;;;7.90;61.20;;;;;;5114796;28;20017;-73
2022/03/02 01:53:24;;;;;;;23.08;11.75;;;7.80;61.10;;;;;;5114715;28;20552;-74
2022/03/02 01:55:50;;;;;;;22.75;10.98;;;7.80;61.10;;;;;;5114679;28;20028;-73
2022/03/02 01:58:16;;;;;;;20.60;11.32;;;7.80;61.10;;;;;;5114629;28;20091;-73
2022/03/02 02:00:42;;;;;;;22.38;12.27;;;7.80;61.10;;;;;;5114564;28;20035;-73
2022/03/02 02:03:08;;;;;;;24.20;11.85;;;7.80;60.80;;;;;;5114518;28;20057;-74
2022/03/02 02:05:34;;;;;;;22.75;11.40;;;7.70;60.90;;;;;;5114487;28;20091;-74
2022/03/02 02:08:00;;;;;;;22.98;11.30;;;7.70;60.70;;;;;;5114451;28;20024;-73
2022/03/02 02:10:26;;;;;;;23.33;11.88;;;7.70;60.60;;;;;;5114223;28;20082;-73
2022/03/02 02:12:52;;;;;;;25.45;12.27;;;7.70;60.70;;;;;;5114312;28;20095;-74
2022/03/02 02:15:17;;;;;;;23.42;11.90;;;7.80;60.70;;;;;;5114309;28;20020;-73
2022/03/02 02:17:43;;;;;;;21.30;11.45;;;7.80;60.60;;;;;;5114394;28;20459;-73
2022/03/02 02:20:10;;;;;;;21.60;11.57;;;7.70;60.60;;;;;;5114236;28;20075;-73
2022/03/02 02:22:42;;;;;;;20.92;11.38;;;7.70;60.60;;;;;;5096100;28;20031;-74
2022/03/02 02:25:07;;;;;;;23.08;11.82;;;7.70;60.60;;;;;;5114052;28;20020;-73
2022/03/02 02:27:33;;;;;;;20.58;10.70;;;7.70;60.60;;;;;;5096130;28;20020;-74
2022/03/02 02:30:00;;;;;;;21.65;10.88;;;7.70;60.40;;;;;;5114010;28;20052;-74
2022/03/02 02:32:26;;;;;;;22.65;10.88;;;7.70;60.50;;;;;;5114011;28;20032;-74
2022/03/02 02:34:51;;;;;;;18.88;10.38;;;7.80;60.10;;;;;;5113949;28;20036;-74
2022/03/02 02:37:17;;;;;;;21.77;10.23;;;7.70;59.70;;;;;;5113909;28;20024;-73
2022/03/02 02:39:52;;;;;;;22.75;10.57;;;7.70;60.00;;;;;;5113898;28;20061;-74
2022/03/02 02:42:18;;;;;;;22.05;11.70;;;7.70;60.10;;;;;;5113917;28;20028;-73
2022/03/02 02:44:44;;;;;;;20.25;10.57;;;7.60;59.90;;;;;;5113659;28;20028;-73
2022/03/02 02:47:11;;;;;;;22.73;10.90;;;7.60;60.00;;;;;;5113770;28;20016;-73
2022/03/02 02:49:37;;;;;;;20.25;10.35;;;7.60;60.10;;;;;;5095836;28;20073;-73
2022/03/02 02:52:03;;;;;;;20.08;10.57;;;7.60;60.20;;;;;;5113669;28;20024;-74
2022/03/02 02:54:29;;;;;;;19.42;10.63;;;7.60;60.30;;;;;;5113649;28;20023;-73
2022/03/02 02:56:55;;;;;;;23.48;10.98;;;7.70;60.60;;;;;;5113622;28;20032;-73
2022/03/02 02:59:20;;;;;;;20.13;10.40;;;7.60;60.70;;;;;;5113586;28;20024;-74
2022/03/02 03:01:46;;;;;;;21.83;10.23;;;7.70;60.70;;;;;;5113564;28;20028;-73
2022/03/02 03:04:13;;;;;;;21.27;11.38;;;7.60;60.70;;;;;;5113472;28;20034;-73
2022/03/02 03:06:38;;;;;;;21.42;10.95;;;7.50;60.50;;;;;;5113614;28;20020;-73
2022/03/02 03:09:04;;;;;;;23.48;11.38;;;7.50;60.50;;;;;;5113502;28;20035;-74
2022/03/02 03:11:30;;;;;;;21.27;10.80;;;7.40;60.70;;;;;;5095668;28;20028;-73
2022/03/02 03:13:55;;;;;;;21.40;10.68;;;7.40;61.00;;;;;;5113569;28;20036;-74
2022/03/02 03:16:21;;;;;;;20.95;10.57;;;7.40;61.10;;;;;;5113402;28;20032;-74
2022/03/02 03:18:46;;;;;;;21.85;11.18;;;7.30;61.00;;;;;;5113431;28;20032;-74
2022/03/02 03:21:12;;;;;;;22.88;12.02;;;7.30;60.90;;;;;;5113349;28;20036;-73
2022/03/02 03:23:38;;;;;;;20.60;10.55;;;7.30;60.90;;;;;;5115195;28;20036;-73
2022/03/02 03:26:03;;;;;;;20.55;10.30;;;7.30;61.00;;;;;;5117605;28;20050;-73
2022/03/02 03:28:29;;;;;;;20.60;10.20;;;7.20;61.10;;;;;;5117529;28;20077;-73
2022/03/02 03:30:55;;;;;;;23.00;10.55;;;7.20;61.30;;;;;;5117467;28;20048;-73
2022/03/02 03:33:21;;;;;;;19.33;9.77;;;7.20;61.50;;;;;;5117423;28;20027;-74
2022/03/02 03:35:47;;;;;;;21.63;11.18;;;7.10;61.60;;;;;;5117492;28;20032;-74
2022/03/02 03:38:12;;;;;;;19.25;10.43;;;7.20;61.60;;;;;;5117346;28;20024;-73
2022/03/02 03:40:38;;;;;;;21.50;10.68;;;7.20;61.40;;;;;;5117278;28;20076;-74
2022/03/02 03:43:05;;;;;;;22.38;11.18;;;7.20;62.20;;;;;;5117204;28;20035;-74
2022/03/02 03:45:30;;;;;;;21.73;10.77;;;7.10;61.30;;;;;;5117054;28;20048;-73
2022/03/02 03:47:56;;;;;;;20.55;10.15;;;7.20;61.30;;;;;;5117143;28;20071;-74
2022/03/02 03:50:23;;;;;;;21.98;11.02;;;7.20;62.20;;;;;;5117108;28;20024;-74
2022/03/02 03:52:49;;;;;;;20.30;10.43;;;7.10;61.50;;;;;;5117091;28;20035;-73
2022/03/02 03:55:15;;;;;;;19.52;10.38;;;7.00;61.50;;;;;;5117049;28;20032;-73
2022/03/02 03:57:42;;;;;;;19.05;10.23;;;6.90;61.50;;;;;;5117008;28;20046;-74
2022/03/02 04:00:12;;;;;;;20.83;10.40;;;6.90;61.60;;;;;;5116932;28;20054;-73
2022/03/02 04:02:37;;;;;;;19.00;10.02;;;6.90;61.80;;;;;;5116888;28;20024;-74
2022/03/02 04:05:04;;;;;;;18.90;9.70;;;6.90;61.60;;;;;;5116787;28;20016;-73
2022/03/02 04:07:29;;;;;;;20.08;10.02;;;6.90;61.50;;;;;;5116772;28;20020;-74
2022/03/02 04:09:55;;;;;;;20.80;10.05;;;6.80;61.60;;;;;;5116749;28;20031;-73
2022/03/02 04:12:21;;;;;;;20.63;9.85;;;6.80;61.80;;;;;;5116715;28;20023;-74
2022/03/02 04:14:47;;;;;;;18.38;9.80;;;6.80;61.70;;;;;;5116664;28;20141;-74
2022/03/02 04:17:12;;;;;;;19.27;10.20;;;6.80;61.70;;;;;;5116638;28;20013;-73
2022/03/02 04:19:39;;;;;;;21.67;9.98;;;6.70;61.80;;;;;;5116554;28;20020;-74
2022/03/02 04:22:05;;;;;;;19.73;10.13;;;6.70;63.00;;;;;;5116490;28;20027;-74
2022/03/02 04:24:30;;;;;;;20.10;9.60;;;6.60;61.90;;;;;;5116286;28;20028;-73
2022/03/02 04:26:56;;;;;;;20.02;9.98;;;6.60;62.30;;;;;;5116540;28;20035;-73
2022/03/02 04:29:22;;;;;;;20.10;10.98;;;6.60;62.20;;;;;;5116463;28;20024;-74
2022/03/02 04:31:48;;;;;;;22.15;10.35;;;6.50;62.30;;;;;;5116353;28;20032;-73
2022/03/02 04:34:14;;;;;;;22.55;10.52;;;6.50;62.20;;;;;;5116216;28;20036;-73
2022/03/02 04:36:39;;;;;;;20.38;10.77;;;6.60;62.20;;;;;;5116233;28;20048;-73
2022/03/02 04:39:05;;;;;;;22.13;10.30;;;6.60;62.00;;;;;;5116224;28;20032;-74
2022/03/02 04:41:31;;;;;;;20.23;9.95;;;6.70;61.70;;;;;;5116151;28;20054;-73
2022/03/02 04:43:56;;;;;;;21.60;10.77;;;6.70;61.60;;;;;;5116023;28;20052;-73
2022/03/02 04:46:22;;;;;;;23.20;10.73;;;6.70;61.40;;;;;;5115846;28;20052;-73
2022/03/02 04:48:48;;;;;;;22.77;11.73;;;6.70;61.20;;;;;;5116135;28;20025;-74
2022/03/02 04:51:13;;;;;;;18.88;8.90;;;6.70;61.30;;;;;;5115935;28;20028;-73
2022/03/02 04:53:39;;;;;;;23.05;11.32;;;6.60;61.10;;;;;;5115896;28;20028;-73
2022/03/02 04:56:05;;;;;;;19.83;9.70;;;6.50;61.30;;;;;;5115879;28;20059;-73
2022/03/02 04:58:30;;;;;;;21.30;11.10;;;6.50;61.30;;;;;;5115814;28;20034;-75
2022/03/02 05:00:56;;;;;;;19.30;9.65;;;6.50;61.50;;;;;;5115907;28;20035;-74
2022/03/02 05:03:22;;;;;;;21.05;10.40;;;6.50;61.50;;;;;;5115789;28;20020;-73
2022/03/02 05:05:47;;;;;;;20.45;11.18;;;6.40;61.50;;;;;;5115700;28;20063;-74
2022/03/02 05:08:13;;;;;;;20.80;10.18;;;6.30;61.50;;;;;;5115644;28;20028;-73
2022/03/02 05:10:38;;;;;;;21.77;10.65;;;6.30;61.70;;;;;;5115709;28;20035;-74
2022/03/02 05:13:04;;;;;;;19.27;10.48;;;6.20;61.70;;;;;;5115541;28;20087;-74
2022/03/02 05:15:30;;;;;;;18.40;10.05;;;6.20;62.00;;;;;;5115501;28;20028;-74
2022/03/02 05:17:57;;;;;;;17.75;9.82;;;6.20;62.40;;;;;;5115417;28;20047;-73
2022/03/02 05:20:23;;;;;;;25.13;11.15;;;6.30;62.30;;;;;;5115418;28;20024;-73
2022/03/02 05:22:52;;;;;;;19.73;10.45;;;6.20;62.40;;;;;;5115270;28;20090;-74
2022/03/02 05:25:17;;;;;;;19.13;10.55;;;6.20;62.20;;;;;;5115238;28;20031;-74
2022/03/02 05:27:44;;;;;;;21.58;10.88;;;6.30;62.10;;;;;;5115246;28;20021;-74
2022/03/02 05:30:11;;;;;;;21.40;10.90;;;6.30;61.70;;;;;;5115185;28;20016;-73
2022/03/02 05:32:38;;;;;;;19.98;9.98;;;6.40;61.60;;;;;;5115173;28;20052;-73
2022/03/02 05:35:05;;;;;;;21.15;10.57;;;6.40;61.40;;;;;;5115119;28;20050;-73
2022/03/02 05:37:30;;;;;;;19.17;9.82;;;6.30;61.60;;;;;;5115017;28;20478;-74
2022/03/02 05:39:56;;;;;;;20.67;10.27;;;6.30;61.80;;;;;;5114984;28;20040;-74
2022/03/02 05:42:22;;;;;;;21.42;10.40;;;6.30;62.10;;;;;;5114974;28;20024;-74
2022/03/02 05:44:49;;;;;;;22.23;10.70;;;6.30;62.10;;;;;;5114768;28;20024;-73
2022/03/02 05:47:15;;;;;;;22.20;10.70;;;6.20;61.90;;;;;;5114412;28;20020;-74
2022/03/02 05:49:40;;;;;;;22.00;10.70;;;6.10;62.20;;;;;;5114817;28;20034;-74
2022/03/02 05:52:06;;;;;;;25.55;10.30;;;5.90;62.30;;;;;;5114786;28;20040;-74
2022/03/02 05:54:32;;;;;;;22.80;10.23;;;5.90;62.80;;;;;;5114716;28;20022;-74
2022/03/02 05:56:58;;;;;;;20.67;10.48;;;5.80;63.00;;;;;;5096691;28;20466;-74
2022/03/02 05:59:23;;;;;;;21.92;10.65;;;5.80;63.00;;;;;;5114648;28;20092;-75
2022/03/02 06:01:49;;;;;;;22.00;10.80;;;5.90;63.00;;;;;;5114593;28;20065;-74
2022/03/02 06:04:15;;;;;;;19.42;9.68;;;6.00;62.80;;;;;;5114476;28;20059;-73
2022/03/02 06:06:41;;;;;;;19.20;9.23;;;6.00;62.50;;;;;;5114493;28;20067;-73
2022/03/02 06:09:09;;;;;;;20.08;10.35;;;5.90;62.40;;;;;;5114429;28;20036;-75
2022/03/02 06:11:39;;;;;;;21.08;9.95;;;5.80;62.70;;;;;;5114425;28;20052;-74
2022/03/02 06:14:06;;;;;;;22.20;10.32;;;5.70;62.60;;;;;;5114411;28;20092;-74
2022/03/02 06:16:32;;;;;;;22.42;10.38;;;5.60;62.70;;;;;;5114435;28;20043;-74
2022/03/02 06:18:57;;;;;;;25.45;10.85;;;5.60;62.60;;;;;;5114236;28;20054;-74
2022/03/02 06:21:28;;;;;;;19.45;10.32;;;5.70;62.40;;;;;;5114177;28;20032;-74
2022/03/02 06:23:55;;;;;;;22.45;9.73;;;5.70;62.30;;;;;;5114023;28;20048;-74
2022/03/02 06:26:22;;;;;;;21.05;10.00;;;5.80;62.40;;;;;;5096145;28;20020;-73
2022/03/02 06:28:49;;;;;;;19.65;9.90;;;5.80;62.30;;;;;;5114101;28;20394;-73
2022/03/02 06:31:15;;;;;;;18.30;9.57;;;5.70;62.10;;;;;;5114053;28;20016;-73
2022/03/02 06:33:40;;;;;;;23.73;9.90;;;5.60;62.50;;;;;;5114015;28;20058;-74
2022/03/02 06:36:06;;;;;;;22.42;10.23;;;5.50;62.80;;;;;;5113987;28;20043;-74
2022/03/02 06:38:32;;;;;;;20.60;9.88;;;5.60;63.00;;;;;;5113931;28;20076;-74
2022/03/02 06:41:24;;;;;;;21.33;10.55;;;5.60;62.90;;;;;;5113879;28;20402;-75
2022/03/02 06:44:08;;;;;;;21.67;11.23;;;5.60;62.90;;;;;;5113798;28;20049;-75
2022/03/02 06:46:54;;;;;;;22.25;10.77;;;5.60;63.10;;;;;;5113627;28;20040;-74
2022/03/02 06:49:22;;;;;;;17.33;9.30;;;5.50;63.20;;;;;;5113760;28;20044;-75
2022/03/02 06:51:50;;;;;;;20.95;9.55;;;5.50;63.50;;;;;;5113722;28;20020;-74
2022/03/02 06:54:22;;;;;;;24.17;11.13;;;5.40;63.60;;;;;;5113713;28;20024;-75
2022/03/02 06:56:50;;;;;;;21.65;10.15;;;5.50;63.80;;;;;;5095582;28;20046;-75
2022/03/02 06:59:28;;;;;;;20.05;9.95;;;5.60;63.70;;;;;;5112950;28;20030;-73
2022/03/02 07:02:02;;;;;;;19.95;10.32;;;5.60;63.40;;;;;;5113576;28;20020;-72
2022/03/02 07:04:32;;;;;;;23.08;11.15;;;5.70;63.10;;;;;;5113429;28;20050;-72
2022/03/02 07:06:58;;;;;;;23.95;11.23;;;5.80;63.10;;;;;;5113496;28;20034;-72
2022/03/02 07:09:24;;;;;;;21.45;10.07;;;5.80;63.30;;;;;;5113399;28;20024;-72
2022/03/02 07:11:50;;;;;;;20.20;10.55;;;5.80;64.20;;;;;;5113382;28;20032;-72
2022/03/02 07:14:16;;;;;;;21.25;10.63;;;5.80;63.30;;;;;;5113370;28;20044;-72
2022/03/02 07:16:43;;;;;;;20.50;10.13;;;5.90;64.10;;;;;;5113452;28;20026;-72
2022/03/02 07:19:09;;;;;;;21.83;11.13;;;5.90;63.30;;;;;;5113337;28;20024;-72
2022/03/02 07:21:39;;;;;;;24.20;11.00;;;6.00;63.20;;;;;;5113326;28;20094;-72
2022/03/02 07:24:14;;;;;;;24.77;11.15;;;6.10;63.20;;;;;;5113171;28;20049;-72
2022/03/02 07:26:44;;;;;;;20.70;10.77;;;6.10;63.10;;;;;;5113198;28;20016;-72
2022/03/02 07:29:10;;;;;;;22.80;10.70;;;6.20;63.00;;;;;;5095351;28;20020;-72
2022/03/02 07:31:37;;;;;;;20.75;10.50;;;6.20;62.90;;;;;;5113244;28;20024;-73
2022/03/02 07:34:04;;;;;;;22.40;11.18;;;6.30;63.60;;;;;;5113223;28;20028;-72
2022/03/02 07:36:31;;;;;;;27.30;12.27;;;6.30;62.90;;;;;;5113112;28;20083;-72
2022/03/02 07:38:57;;;;;;;24.42;12.13;;;6.40;63.10;;;;;;5113144;28;20115;-74
2022/03/02 07:41:22;;;;;;;22.52;12.07;;;6.40;63.10;;;;;;5113124;28;20032;-73
2022/03/02 07:43:50;;;;;;;28.75;12.73;;;6.40;63.20;;;;;;5113002;28;20039;-74
2022/03/02 07:46:16;;;;;;;28.33;12.35;;;6.40;63.20;;;;;;5112964;28;20066;-74
2022/03/02 07:48:41;;;;;;;23.42;11.27;;;6.50;63.20;;;;;;5113084;28;20058;-74
2022/03/02 07:51:08;;;;;;;26.77;11.75;;;6.60;63.10;;;;;;5113031;28;20032;-74
2022/03/02 07:53:43;;;;;;;23.40;11.57;;;6.60;62.90;;;;;;5113007;28;20032;-74
2022/03/02 07:56:10;;;;;;;22.00;11.23;;;6.60;62.70;;;;;;5113010;28;20064;-74
2022/03/02 07:58:40;;;;;;;20.75;11.45;;;6.70;62.60;;;;;;5113002;28;20032;-73
2022/03/02 08:01:17;;;;;;;23.15;11.57;;;6.70;62.50;;;;;;5112989;28;20044;-73
2022/03/02 08:03:44;;;;;;;21.30;10.60;;;6.70;61.40;;;;;;5112895;28;20028;-74
2022/03/02 08:06:10;;;;;;;21.52;11.95;;;6.70;59.70;;;;;;5112926;28;20024;-74
2022/03/02 08:08:38;;;;;;;22.83;11.57;;;6.70;59.10;;;;;;5113056;28;20024;-73
2022/03/02 08:11:05;;;;;;;23.02;11.18;;;6.70;59.10;;;;;;5116723;28;20026;-74
2022/03/02 08:13:33;;;;;;;23.00;11.23;;;6.70;59.80;;;;;;5116642;28;20107;-73
2022/03/02 08:16:00;;;;;;;21.33;11.20;;;6.80;59.60;;;;;;5116660;28;20021;-74
2022/03/02 08:18:26;;;;;;;20.92;11.13;;;6.90;59.60;;;;;;5116697;28;20034;-74
2022/03/02 08:20:54;;;;;;;23.92;10.77;;;7.00;59.90;;;;;;5116549;28;20031;-74
2022/03/02 08:23:23;;;;;;;22.77;11.43;;;7.10;59.70;;;;;;5116420;28;20086;-74
2022/03/02 08:25:52;;;;;;;19.08;10.65;;;7.20;59.80;;;;;;5116373;28;20020;-74
2022/03/02 08:28:19;;;;;;;21.98;11.13;;;7.30;59.20;;;;;;5116511;28;20024;-74
2022/03/02 08:30:49;;;;;;;21.52;10.38;;;7.40;58.00;;;;;;5116324;28;20024;-75
2022/03/02 08:33:29;;;;;;;22.20;10.20;;;7.50;58.90;;;;;;5116306;28;20024;-75
2022/03/02 08:35:56;;;;;;;21.35;11.23;;;7.60;57.30;;;;;;5116305;28;20028;-75
2022/03/02 08:38:24;;;;;;;21.23;10.90;;;7.80;58.60;;;;;;5116207;28;20158;-74
2022/03/02 08:40:50;;;;;;;20.45;9.73;;;8.00;58.70;;;;;;5116256;28;20058;-75
2022/03/02 08:43:16;;;;;;;21.77;10.70;;;8.20;57.50;;;;;;5116047;28;20077;-74
2022/03/02 08:45:47;;;;;;;19.17;9.95;;;8.30;55.90;;;;;;5115880;28;20044;-74
2022/03/02 08:48:15;;;;;;;19.70;10.02;;;8.50;55.50;;;;;;5116102;28;20020;-75
2022/03/02 08:50:42;;;;;;;18.85;10.13;;;8.60;55.40;;;;;;5115982;28;20026;-74
2022/03/02 08:53:12;;;;;;;18.85;10.07;;;8.70;54.60;;;;;;5115820;28;20031;-75
2022/03/02 08:55:39;;;;;;;19.40;10.27;;;8.80;53.40;;;;;;5115906;28;20028;-74
2022/03/02 08:58:05;;;;;;;17.85;9.38;;;8.90;52.40;;;;;;5115814;28;20065;-74
2022/03/02 09:00:32;;;;;;;15.82;9.55;;;8.90;49.80;;;;;;5115781;28;20024;-74
2022/03/02 09:03:00;;;;;;;19.85;9.82;;;8.90;50.80;;;;;;5115634;28;20100;-74
2022/03/02 09:05:29;;;;;;;17.95;9.85;;;9.00;48.90;;;;;;5115688;28;20046;-75
2022/03/02 09:07:55;;;;;;;21.17;10.65;;;9.00;48.00;;;;;;5115585;28;20028;-74
2022/03/02 09:10:22;;;;;;;17.75;9.25;;;9.10;48.90;;;;;;5115578;28;20021;-75
2022/03/02 09:12:51;;;;;;;21.52;10.18;;;9.20;47.60;;;;;;5115468;28;20035;-75
2022/03/02 09:15:17;;;;;;;17.38;9.93;;;9.30;48.00;;;;;;5115474;28;20035;-74
2022/03/02 09:17:42;;;;;;;19.10;9.05;;;9.40;48.60;;;;;;5115446;28;20028;-75
2022/03/02 09:20:09;;;;;;;20.73;9.38;;;9.40;46.80;;;;;;5114973;28;20031;-75
2022/03/02 09:22:37;;;;;;;15.55;8.85;;;9.40;47.50;;;;;;5114825;28;20024;-74
2022/03/02 09:25:06;;;;;;;20.52;10.13;;;9.50;48.30;;;;;;5115247;28;20050;-75
2022/03/02 09:27:33;;;;;;;20.90;9.70;;;9.50;48.10;;;;;;5115284;28;20025;-74
2022/03/02 09:30:00;;;;;;;18.45;10.10;;;9.60;47.90;;;;;;5115341;28;20031;-74
2022/03/02 09:32:27;;;;;;;18.20;9.52;;;9.60;48.50;;;;;;5115140;28;20024;-74
2022/03/02 09:34:57;;;;;;;15.95;9.35;;;9.60;48.00;;;;;;5115225;28;20020;-73
2022/03/02 09:37:26;;;;;;;17.65;10.38;;;9.60;47.80;;;;;;5115078;28;20115;-73
2022/03/02 09:39:51;;;;;;;16.25;9.00;;;9.70;46.80;;;;;;5097044;28;20046;-73
2022/03/02 09:42:35;;;;;;;15.85;8.95;;;9.60;47.00;;;;;;5096914;28;20020;-74
2022/03/02 09:45:11;;;;;;;18.73;10.40;;;9.70;46.10;;;;;;5096813;28;20051;-73
2022/03/02 09:47:44;;;;;;;19.15;9.80;;;9.70;46.10;;;;;;5097189;28;20020;-73
2022/03/02 09:50:13;;;;;;;17.33;9.00;;;9.70;47.40;;;;;;5114855;28;20494;-73
2022/03/02 09:52:41;;;;;;;14.93;8.77;;;9.80;46.70;;;;;;5114752;28;20111;-72
2022/03/02 09:55:12;;;;;;;17.35;8.98;;;9.90;46.00;;;;;;5114693;28;20030;-72
2022/03/02 09:57:50;;;;;;;17.57;9.57;;;10.10;46.90;;;;;;5114794;28;20054;-72
2022/03/02 10:00:18;;;;;;;15.52;9.27;;;10.30;47.10;;;;;;5096986;28;20028;-72
2022/03/02 10:02:48;;;;;;;20.40;10.50;;;10.40;46.80;;;;;;5096598;28;20032;-72
2022/03/02 10:05:20;;;;;;;18.00;9.55;;;10.50;45.80;;;;;;5114490;28;20048;-72
2022/03/02 10:08:08;;;;;;;16.17;8.82;;;10.50;44.60;;;;;;5114541;28;20044;-72
2022/03/02 10:10:39;;;;;;;15.38;8.55;;;10.60;43.80;;;;;;5114502;28;20024;-72
2022/03/02 10:13:10;;;;;;;15.23;8.65;;;10.70;42.90;;;;;;5114431;28;20031;-72
2022/03/02 10:15:39;;;;;;;16.15;8.88;;;10.70;41.90;;;;;;5114528;28;20024;-72
2022/03/02 10:18:07;;;;;;;16.90;9.13;;;10.80;42.90;;;;;;5096247;28;20102;-72
2022/03/02 10:20:36;;;;;;;15.15;8.43;;;10.80;40.90;;;;;;5114241;28;20024;-72
2022/03/02 10:23:32;;;;;;;14.95;8.63;;;10.90;41.10;;;;;;5114173;28;20044;-72
2022/03/02 10:26:03;;;;;;;16.33;8.77;;;10.90;40.20;;;;;;5096100;28;20081;-72
2022/03/02 10:28:31;;;;;;;14.77;8.43;;;10.80;41.20;;;;;;5114128;28;20047;-72
2022/03/02 10:31:10;;;;;;;15.75;8.57;;;10.90;42.90;;;;;;5114000;28;20084;-71
2022/03/02 10:33:39;;;;;;;14.63;8.57;;;11.10;42.30;;;;;;5095926;28;20032;-71
2022/03/02 10:36:12;;;;;;;14.77;8.43;;;11.10;39.80;;;;;;5113953;28;20032;-71
2022/03/02 10:38:50;;;;;;;15.00;8.45;;;11.10;39.40;;;;;;5113948;28;20083;-71
2022/03/02 10:41:19;;;;;;;16.45;8.93;;;11.10;41.40;;;;;;5095909;28;20054;-71
2022/03/02 10:44:22;;;;;;;17.67;8.60;;;11.20;41.40;;;;;;5113747;28;20023;-72
2022/03/02 10:47:02;;;;;;;17.08;9.25;;;11.30;41.10;;;;;;5095930;28;20059;-71
2022/03/02 10:49:29;;;;;;;14.55;8.48;;;11.40;41.10;;;;;;5113864;28;20044;-71
2022/03/02 10:51:57;;;;;;;17.30;9.05;;;11.50;41.00;;;;;;5113676;28;20378;-71
2022/03/02 10:54:26;;;;;;;16.73;9.43;;;11.50;39.00;;;;;;5113681;28;20020;-71
2022/03/02 10:56:53;;;;;;;14.52;8.38;;;11.50;37.80;;;;;;5113594;28;20059;-71
2022/03/02 10:59:23;;;;;;;15.80;8.82;;;11.40;39.90;;;;;;5113643;28;20046;-70
2022/03/02 11:01:53;;;;;;;16.20;8.57;;;11.50;38.20;;;;;;5113548;28;20174;-72
2022/03/02 11:04:21;;;;;;;13.20;7.85;;;11.40;38.10;;;;;;5095396;28;20039;-71
2022/03/02 11:06:47;;;;;;;15.75;8.63;;;11.30;39.10;;;;;;5113489;28;20020;-71
2022/03/02 11:09:16;;;;;;;18.40;9.48;;;11.40;40.00;;;;;;5113539;28;20024;-71
2022/03/02 11:11:42;;;;;;;16.05;8.93;;;11.50;41.40;;;;;;5113445;28;20020;-71
2022/03/02 11:14:09;;;;;;;14.57;8.27;;;11.60;42.10;;;;;;5113368;28;20032;-71
2022/03/02 11:16:35;;;;;;;15.38;8.75;;;11.80;41.50;;;;;;5113494;28;20030;-71
2022/03/02 11:19:13;;;;;;;14.98;9.02;;;11.90;41.10;;;;;;5113368;28;20032;-71
2022/03/02 11:21:41;;;;;;;15.95;9.35;;;12.10;40.90;;;;;;5113314;28;20043;-71
2022/03/02 11:24:08;;;;;;;15.50;9.27;;;12.00;40.00;;;;;;5113171;28;20058;-71
2022/03/02 11:26:39;;;;;;;13.57;9.15;;;12.00;39.10;;;;;;5113337;28;20016;-71
2022/03/02 11:29:11;;;;;;;17.02;9.63;;;12.10;40.40;;;;;;5113309;28;20044;-71
2022/03/02 11:31:42;;;;;;;15.32;8.68;;;12.20;40.90;;;;;;5113229;28;20072;-71
2022/03/02 11:34:15;;;;;;;15.38;8.63;;;12.20;40.80;;;;;;5113153;28;20444;-71
2022/03/02 11:36:46;;;;;;;15.05;8.30;;;12.30;37.70;;;;;;5113242;28;20051;-71
2022/03/02 11:39:13;;;;;;;18.98;9.32;;;12.20;39.50;;;;;;5113210;28;20050;-71
2022/03/02 11:41:41;;;;;;;15.32;8.93;;;12.30;40.40;;;;;;5113145;28;20092;-71
2022/03/02 11:44:33;;;;;;;14.40;8.52;;;12.40;39.40;;;;;;5114118;28;20028;-71
2022/03/02 11:47:08;;;;;;;14.32;8.75;;;12.40;40.20;;;;;;5117038;28;20036;-71
2022/03/02 11:49:37;;;;;;;17.10;9.50;;;12.50;40.80;;;;;;5117207;28;20020;-71
2022/03/02 11:52:09;;;;;;;15.05;8.30;;;12.60;40.80;;;;;;5099189;28;20118;-71
2022/03/02 11:54:47;;;;;;;14.17;8.60;;;12.70;41.10;;;;;;5117162;28;20471;-71
2022/03/02 11:57:14;;;;;;;14.43;9.05;;;12.80;40.50;;;;;;5117016;28;20020;-71
2022/03/02 11:59:40;;;;;;;17.02;9.00;;;12.90;40.80;;;;;;5116960;28;20058;-71
2022/03/02 12:02:25;;;;;;;16.48;9.38;;;12.90;40.20;;;;;;5116896;28;20055;-71
2022/03/02 12:05:03;;;;;;;15.15;8.07;;;13.00;39.20;;;;;;5116502;28;20074;-71
2022/03/02 12:08:01;;;;;;;14.70;8.65;;;13.00;39.00;;;;;;5116673;28;20020;-71
2022/03/02 12:10:34;;;;;;;13.98;8.65;;;13.10;39.10;;;;;;5071235;28;20040;-71
2022/03/02 12:12:59;;;;;;;14.93;8.63;;;13.10;39.30;;;;;;5116700;28;20024;-71
2022/03/02 12:15:39;;;;;;;14.85;8.60;;;13.20;36.10;;;;;;5116649;28;20043;-71
2022/03/02 12:18:09;;;;;;;14.00;8.10;;;13.00;36.40;;;;;;5116746;28;20048;-71
2022/03/02 12:20:50;;;;;;;13.35;8.10;;;13.00;38.60;;;;;;5116563;28;20039;-71
2022/03/02 12:23:33;;;;;;;13.25;7.90;;;13.10;37.50;;;;;;5116452;28;20034;-71
2022/03/02 12:26:00;;;;;;;15.00;8.02;;;13.20;38.00;;;;;;5098373;28;20083;-71
2022/03/02 12:28:26;;;;;;;15.20;8.63;;;13.30;37.40;;;;;;5116494;28;20027;-71
2022/03/02 12:30:53;;;;;;;14.93;8.15;;;13.40;37.80;;;;;;5116269;28;20062;-71
2022/03/02 12:33:20;;;;;;;14.05;8.15;;;13.40;38.70;;;;;;5116258;28;20020;-71
2022/03/02 12:35:46;;;;;;;15.63;9.35;;;13.50;37.20;;;;;;5116257;28;20020;-71
2022/03/02 12:38:12;;;;;;;15.90;8.88;;;13.50;35.30;;;;;;5116223;28;20404;-71
2022/03/02 12:40:42;;;;;;;17.30;9.45;;;13.40;37.20;;;;;;5116029;28;20024;-71
2022/03/02 12:43:16;;;;;;;14.52;8.40;;;13.50;38.20;;;;;;5116144;28;20034;-71